Time;durP1;ratioP1;P1;durP2;ratioP2;P2;SDS_P1;SDS_P2;PMS_P1;PMS_P2;Temp;Humidity;BMP_temperature;BMP_pressure;BME280_temperature;BME280_humidity;BME280_pressure;Samples;Min_cycle;Max_cycle;Signal;HPM_P1;HPM_P2
2022/10/29 00:01:31;;;;;;;16.30;10.13;;;16.10;99.90;;;;;;5094410;28;20221;-61
2022/10/29 00:03:56;;;;;;;13.30;9.73;;;16.00;99.90;;;;;;5093796;28;20177;-62
2022/10/29 00:06:24;;;;;;;15.47;10.40;;;16.00;99.90;;;;;;5094478;28;20180;-59
2022/10/29 00:08:50;;;;;;;16.30;10.23;;;15.90;99.90;;;;;;5094277;28;20586;-60
2022/10/29 00:11:18;;;;;;;14.40;10.03;;;16.00;99.90;;;;;;5094170;28;20204;-60
2022/10/29 00:13:45;;;;;;;13.50;10.10;;;16.00;99.90;;;;;;5094180;28;20583;-61
2022/10/29 00:16:14;;;;;;;13.60;9.80;;;16.00;99.90;;;;;;5094073;28;20311;-59
2022/10/29 00:18:40;;;;;;;16.73;10.40;;;15.90;99.90;;;;;;5091071;28;20204;-61
2022/10/29 00:21:09;;;;;;;15.27;10.03;;;16.00;99.90;;;;;;5093071;28;20193;-59
2022/10/29 00:23:35;;;;;;;12.23;10.03;;;15.90;99.90;;;;;;5093642;28;20173;-58
2022/10/29 00:26:02;;;;;;;18.67;11.70;;;15.90;99.90;;;;;;5093581;28;20187;-57
2022/10/29 00:28:28;;;;;;;13.93;10.80;;;15.80;99.90;;;;;;5093207;28;20214;-58
2022/10/29 00:30:53;;;;;;;12.53;10.23;;;15.80;99.90;;;;;;5094095;28;20233;-57
2022/10/29 00:33:19;;;;;;;15.43;10.50;;;15.90;99.90;;;;;;5094043;28;20223;-57
2022/10/29 00:36:00;;;;;;;14.17;10.57;;;16.00;99.90;;;;;;5093144;28;20200;-55
2022/10/29 00:38:26;;;;;;;14.53;10.20;;;16.00;99.90;;;;;;5073404;28;20267;-58
2022/10/29 00:40:52;;;;;;;13.53;10.37;;;16.00;99.90;;;;;;5073504;28;20167;-59
2022/10/29 00:43:20;;;;;;;13.27;10.10;;;16.00;99.90;;;;;;5073130;28;20173;-57
2022/10/29 00:45:51;;;;;;;14.50;10.10;;;16.10;99.90;;;;;;5073485;28;20181;-60
2022/10/29 00:48:16;;;;;;;12.83;9.97;;;16.00;99.90;;;;;;5073185;28;20206;-59
2022/10/29 00:50:44;;;;;;;12.37;9.83;;;15.70;99.90;;;;;;5073361;28;20174;-60
2022/10/29 00:53:10;;;;;;;14.90;10.73;;;15.90;99.90;;;;;;5092722;28;20204;-60
2022/10/29 00:55:35;;;;;;;14.30;10.80;;;16.00;99.90;;;;;;5093464;28;20239;-55
2022/10/29 00:58:02;;;;;;;15.57;10.37;;;15.60;99.90;;;;;;5093016;28;20280;-57
2022/10/29 01:00:27;;;;;;;14.20;10.43;;;15.50;99.90;;;;;;5093404;28;20184;-58
2022/10/29 01:02:53;;;;;;;15.83;10.30;;;15.60;99.90;;;;;;5093106;28;20177;-59
2022/10/29 01:05:22;;;;;;;14.60;10.00;;;15.70;99.90;;;;;;5093090;28;20180;-60
2022/10/29 01:07:47;;;;;;;14.43;10.50;;;15.80;99.90;;;;;;5075050;28;20230;-59
2022/10/29 01:10:14;;;;;;;13.00;10.43;;;15.80;99.90;;;;;;5093122;28;20633;-59
2022/10/29 01:12:55;;;;;;;20.33;10.70;;;15.60;99.90;;;;;;5093254;28;20204;-60
2022/10/29 01:15:33;;;;;;;19.10;10.80;;;15.60;99.90;;;;;;5092584;28;20566;-57
2022/10/29 01:18:22;;;;;;;16.30;10.40;;;15.60;99.90;;;;;;5092994;28;20761;-58
2022/10/29 01:21:16;;;;;;;14.70;11.07;;;15.40;99.90;;;;;;5092808;28;20174;-61
2022/10/29 01:24:09;;;;;;;14.00;10.33;;;15.40;99.90;;;;;;5092731;28;20160;-60
2022/10/29 01:26:50;;;;;;;15.47;10.53;;;15.50;99.90;;;;;;5092562;28;20182;-58
2022/10/29 01:29:25;;;;;;;18.93;11.27;;;15.50;99.90;;;;;;5092822;28;20202;-58
2022/10/29 01:31:57;;;;;;;14.27;10.50;;;15.50;99.90;;;;;;5092516;28;20182;-61
2022/10/29 01:34:54;;;;;;;14.97;10.50;;;15.40;99.90;;;;;;5092437;28;20620;-57
2022/10/29 01:37:35;;;;;;;14.20;10.67;;;15.40;99.90;;;;;;5092679;28;20190;-59
2022/10/29 01:40:16;;;;;;;14.63;10.10;;;15.40;99.90;;;;;;5092645;28;20155;-56
2022/10/29 01:43:07;;;;;;;13.20;10.50;;;15.40;99.90;;;;;;5092773;28;20569;-57
2022/10/29 01:45:48;;;;;;;13.20;10.83;;;15.40;99.90;;;;;;5080862;28;20235;-60
2022/10/29 01:48:21;;;;;;;14.60;11.10;;;15.30;99.90;;;;;;5092615;28;20288;-61
2022/10/29 01:50:52;;;;;;;16.37;10.93;;;15.30;99.90;;;;;;5092426;28;20259;-58
2022/10/29 01:53:18;;;;;;;17.50;11.57;;;15.30;99.90;;;;;;5091997;28;20174;-58
2022/10/29 01:55:44;;;;;;;16.37;10.40;;;15.00;99.90;;;;;;5074147;28;20218;-60
2022/10/29 01:58:11;;;;;;;15.80;10.37;;;14.90;99.90;;;;;;5092148;28;20532;-59
2022/10/29 02:00:55;;;;;;;13.87;10.03;;;14.90;99.90;;;;;;5093226;28;20196;-61
2022/10/29 02:03:39;;;;;;;19.90;10.37;;;15.00;99.90;;;;;;5091717;28;20165;-60
2022/10/29 02:06:08;;;;;;;15.67;9.83;;;14.90;99.90;;;;;;5092239;28;20167;-60
2022/10/29 02:08:33;;;;;;;15.07;10.00;;;15.00;99.90;;;;;;5091870;28;20696;-57
2022/10/29 02:11:28;;;;;;;14.17;9.93;;;15.00;99.90;;;;;;5092301;28;20176;-59
2022/10/29 02:14:09;;;;;;;14.93;10.67;;;15.00;99.90;;;;;;4989731;28;20196;-60
2022/10/29 02:16:34;;;;;;;13.93;10.30;;;15.00;99.90;;;;;;4990142;28;20190;-60
2022/10/29 02:19:00;;;;;;;15.03;10.27;;;14.90;99.90;;;;;;4990416;28;20196;-60
2022/10/29 02:21:26;;;;;;;15.17;10.10;;;14.90;99.90;;;;;;4990369;28;20183;-58
2022/10/29 02:23:52;;;;;;;13.60;10.03;;;14.80;99.90;;;;;;4989485;28;20184;-60
2022/10/29 02:26:17;;;;;;;14.37;9.87;;;14.90;99.90;;;;;;4990077;28;20191;-57
2022/10/29 02:28:43;;;;;;;13.80;10.33;;;14.80;99.90;;;;;;4989806;28;20224;-58
2022/10/29 02:31:09;;;;;;;11.60;9.27;;;14.80;99.90;;;;;;4989633;28;20184;-57
2022/10/29 02:33:35;;;;;;;12.63;9.53;;;14.80;99.90;;;;;;4989458;28;20197;-59
2022/10/29 02:36:01;;;;;;;11.90;9.57;;;14.80;99.90;;;;;;4989331;28;20209;-59
2022/10/29 02:38:26;;;;;;;12.73;9.37;;;14.60;99.90;;;;;;4989782;28;20211;-57
2022/10/29 02:40:52;;;;;;;11.63;8.73;;;14.60;99.90;;;;;;4989496;28;20188;-57
2022/10/29 02:43:18;;;;;;;11.73;9.27;;;14.70;99.90;;;;;;4989492;28;20190;-60
2022/10/29 02:45:43;;;;;;;12.23;9.97;;;14.70;99.90;;;;;;4989454;28;20189;-56
2022/10/29 02:48:09;;;;;;;16.60;9.57;;;14.80;99.90;;;;;;4989993;28;20193;-58
2022/10/29 02:50:34;;;;;;;14.43;10.03;;;14.80;99.90;;;;;;5052895;28;20270;-58
2022/10/29 02:53:00;;;;;;;14.37;9.27;;;14.80;99.90;;;;;;5091011;28;20177;-60
2022/10/29 02:55:25;;;;;;;13.50;8.63;;;14.80;99.90;;;;;;5090993;28;20654;-57
2022/10/29 02:57:51;;;;;;;12.30;9.20;;;14.80;99.90;;;;;;5091216;28;20224;-58
2022/10/29 03:00:17;;;;;;;12.77;9.53;;;14.80;99.90;;;;;;5091378;28;20171;-60
2022/10/29 03:02:42;;;;;;;13.03;9.80;;;14.70;99.90;;;;;;5091131;28;20170;-61
2022/10/29 03:05:09;;;;;;;12.03;9.50;;;14.60;99.90;;;;;;5091076;28;20194;-57
2022/10/29 03:07:36;;;;;;;12.83;9.37;;;14.50;99.90;;;;;;5091065;28;20202;-58
2022/10/29 03:10:06;;;;;;;13.70;9.87;;;14.50;99.90;;;;;;5091239;28;20208;-57
2022/10/29 03:12:32;;;;;;;11.60;8.87;;;14.50;99.90;;;;;;5090979;28;20272;-61
2022/10/29 03:14:57;;;;;;;13.63;8.97;;;14.60;99.90;;;;;;5091018;28;20555;-60
2022/10/29 03:17:23;;;;;;;13.53;8.97;;;14.60;99.90;;;;;;5091223;28;20227;-62
2022/10/29 03:19:49;;;;;;;12.27;8.90;;;14.60;99.90;;;;;;5090995;28;20644;-58
2022/10/29 03:22:15;;;;;;;11.70;9.37;;;14.60;99.90;;;;;;5091197;28;20170;-60
2022/10/29 03:24:40;;;;;;;14.63;9.43;;;14.50;99.90;;;;;;5090746;28;20182;-58
2022/10/29 03:27:06;;;;;;;13.10;9.07;;;14.50;99.90;;;;;;5072800;28;20208;-60
2022/10/29 03:29:31;;;;;;;16.87;9.87;;;14.50;99.90;;;;;;5091100;28;20185;-57
2022/10/29 03:31:57;;;;;;;14.47;9.63;;;14.40;99.90;;;;;;5091122;28;20179;-59
2022/10/29 03:34:22;;;;;;;13.33;9.63;;;14.50;99.90;;;;;;5090651;28;20169;-59
2022/10/29 03:36:48;;;;;;;13.87;10.17;;;14.40;99.90;;;;;;5090936;28;20194;-58
2022/10/29 03:39:14;;;;;;;15.17;9.80;;;14.50;99.90;;;;;;5090857;28;20318;-57
2022/10/29 03:41:39;;;;;;;11.57;9.30;;;14.40;99.90;;;;;;5091266;28;20177;-57
2022/10/29 03:44:05;;;;;;;12.30;8.87;;;14.30;99.90;;;;;;5090365;28;20659;-57
2022/10/29 03:46:30;;;;;;;11.30;8.97;;;14.20;99.90;;;;;;5072731;28;20183;-58
2022/10/29 03:48:56;;;;;;;10.73;8.30;;;14.10;99.90;;;;;;5090925;28;20178;-60
2022/10/29 03:51:21;;;;;;;12.20;8.57;;;14.10;99.90;;;;;;5090669;28;20178;-60
2022/10/29 03:53:47;;;;;;;11.80;8.77;;;14.10;99.90;;;;;;5090660;28;20178;-58
2022/10/29 03:56:12;;;;;;;11.47;8.47;;;14.70;99.90;;;;;;5090747;28;20288;-58
2022/10/29 03:58:38;;;;;;;12.07;8.40;;;12.80;99.90;;;;;;5090750;28;20671;-57
2022/10/29 04:01:08;;;;;;;10.80;8.60;;;14.00;99.90;;;;;;5090609;28;20662;-58
2022/10/29 04:03:35;;;;;;;14.30;8.87;;;14.10;99.90;;;;;;5090915;28;20169;-56
2022/10/29 04:06:08;;;;;;;10.93;8.97;;;14.20;99.90;;;;;;5094364;28;20178;-60
2022/10/29 04:08:34;;;;;;;10.63;8.70;;;14.30;99.90;;;;;;5094383;28;20230;-58
2022/10/29 04:10:59;;;;;;;10.80;8.63;;;14.30;99.90;;;;;;5094615;28;20545;-55
2022/10/29 04:13:25;;;;;;;12.10;9.47;;;14.30;99.90;;;;;;5093906;28;20209;-59
2022/10/29 04:15:54;;;;;;;11.77;9.80;;;14.30;99.90;;;;;;5094354;28;20198;-56
2022/10/29 04:18:20;;;;;;;13.10;9.37;;;14.40;99.90;;;;;;5093969;28;20225;-57
2022/10/29 04:20:46;;;;;;;12.87;8.50;;;14.20;99.90;;;;;;5094392;28;20206;-59
2022/10/29 04:23:11;;;;;;;11.13;8.37;;;13.90;99.90;;;;;;5093825;28;20206;-60
2022/10/29 04:25:37;;;;;;;14.30;8.40;;;14.00;99.90;;;;;;5094127;28;20212;-58
2022/10/29 04:28:02;;;;;;;11.93;8.70;;;14.10;99.90;;;;;;5093823;28;20269;-58
2022/10/29 04:30:28;;;;;;;11.60;8.47;;;14.10;99.90;;;;;;5094214;28;20166;-60
2022/10/29 04:32:58;;;;;;;12.80;7.67;;;14.10;99.90;;;;;;5093803;28;20197;-60
2022/10/29 04:35:25;;;;;;;10.93;8.10;;;15.30;99.90;;;;;;5093446;28;20870;-59
2022/10/29 04:37:54;;;;;;;10.50;7.80;;;14.10;99.90;;;;;;5093958;28;20221;-59
2022/10/29 04:40:21;;;;;;;10.47;8.33;;;15.10;99.90;;;;;;5093547;28;20252;-57
2022/10/29 04:42:46;;;;;;;11.03;7.63;;;13.90;99.90;;;;;;5093926;28;20166;-58
2022/10/29 04:45:12;;;;;;;10.77;7.73;;;13.80;99.90;;;;;;5093181;28;20174;-59
2022/10/29 04:47:37;;;;;;;10.83;7.93;;;13.70;99.90;;;;;;5093621;28;20197;-61
2022/10/29 04:50:03;;;;;;;12.20;7.50;;;13.80;99.90;;;;;;5093187;28;20268;-59
2022/10/29 04:52:29;;;;;;;10.53;7.23;;;13.90;99.90;;;;;;5093828;28;20733;-57
2022/10/29 04:54:54;;;;;;;11.10;7.40;;;14.00;99.90;;;;;;5093102;28;20276;-60
2022/10/29 04:57:20;;;;;;;9.70;8.43;;;13.90;99.90;;;;;;5093614;28;20528;-57
2022/10/29 04:59:45;;;;;;;9.97;7.80;;;13.90;99.90;;;;;;5093180;28;20542;-61
2022/10/29 05:02:11;;;;;;;9.87;7.30;;;13.90;99.90;;;;;;5093384;28;20185;-58
2022/10/29 05:04:36;;;;;;;10.40;7.47;;;13.90;99.90;;;;;;5093862;28;20702;-60
2022/10/29 05:07:02;;;;;;;9.47;7.70;;;13.90;99.90;;;;;;5093141;28;20556;-57
2022/10/29 05:09:28;;;;;;;11.10;8.83;;;14.00;99.90;;;;;;5093297;28;20247;-58
2022/10/29 05:11:53;;;;;;;11.00;8.80;;;14.00;99.90;;;;;;5093261;28;20177;-57
2022/10/29 05:14:19;;;;;;;11.80;9.00;;;;;;;;;;5092661;28;20223;-59
2022/10/29 05:16:45;;;;;;;10.03;7.90;;;14.40;99.90;;;;;;5092884;28;20570;-59
2022/10/29 05:19:10;;;;;;;9.97;8.47;;;14.10;99.90;;;;;;5093322;28;20170;-56
2022/10/29 05:21:36;;;;;;;9.73;7.80;;;14.00;99.90;;;;;;5092851;28;20221;-57
2022/10/29 05:24:01;;;;;;;11.73;8.20;;;13.90;99.90;;;;;;5092710;28;20662;-60
2022/10/29 05:26:31;;;;;;;8.30;7.30;;;14.00;99.90;;;;;;5092846;28;20567;-57
2022/10/29 05:28:56;;;;;;;10.70;8.03;;;14.00;99.90;;;;;;5091064;28;20219;-61
2022/10/29 05:31:22;;;;;;;8.53;7.63;;;14.00;99.90;;;;;;5091772;28;20253;-60
2022/10/29 05:33:47;;;;;;;11.03;8.90;;;13.90;99.90;;;;;;5091753;28;20201;-59
2022/10/29 05:36:13;;;;;;;8.17;7.30;;;13.90;99.90;;;;;;5092325;28;20688;-58
2022/10/29 05:38:38;;;;;;;9.87;7.83;;;13.90;99.90;;;;;;5092125;28;20604;-60
2022/10/29 05:41:04;;;;;;;8.43;6.57;;;13.80;99.90;;;;;;5092568;28;20200;-58
2022/10/29 05:43:29;;;;;;;8.67;6.83;;;13.80;99.90;;;;;;5092083;28;20708;-58
2022/10/29 05:45:55;;;;;;;9.27;8.30;;;13.80;99.90;;;;;;5092148;28;20666;-57
2022/10/29 05:48:20;;;;;;;9.70;6.20;;;13.80;99.90;;;;;;5092237;28;20216;-59
2022/10/29 05:50:46;;;;;;;7.47;5.27;;;13.70;99.90;;;;;;5092315;28;20634;-59
2022/10/29 05:53:13;;;;;;;5.23;4.63;;;13.80;99.90;;;;;;5092276;28;20631;-60
2022/10/29 05:55:40;;;;;;;6.70;4.10;;;13.80;99.90;;;;;;5092334;28;20234;-58
2022/10/29 05:58:11;;;;;;;4.93;4.53;;;13.80;99.90;;;;;;5092369;28;20206;-58
2022/10/29 06:00:39;;;;;;;7.27;5.50;;;13.90;99.90;;;;;;5092021;28;20723;-58
2022/10/29 06:03:16;;;;;;;6.60;5.90;;;13.80;99.90;;;;;;5091699;28;20319;-57
2022/10/29 06:05:41;;;;;;;7.17;6.00;;;13.70;99.90;;;;;;5091874;28;20228;-58
2022/10/29 06:08:07;;;;;;;6.27;5.20;;;13.30;99.90;;;;;;5092194;28;20217;-57
2022/10/29 06:10:33;;;;;;;7.97;6.70;;;13.30;99.90;;;;;;5091761;28;20165;-60
2022/10/29 06:12:59;;;;;;;7.60;6.80;;;;;;;;;;5092174;28;20174;-61
2022/10/29 06:15:24;;;;;;;8.23;6.80;;;13.40;99.90;;;;;;5091620;28;20215;-58
2022/10/29 06:17:50;;;;;;;8.83;6.57;;;13.40;99.90;;;;;;5091841;28;20255;-60
2022/10/29 06:20:17;;;;;;;9.10;8.20;;;13.60;99.90;;;;;;5091960;28;20172;-61
2022/10/29 06:22:43;;;;;;;9.27;6.57;;;13.50;99.90;;;;;;5091952;28;20704;-58
2022/10/29 06:25:09;;;;;;;9.53;7.20;;;13.60;99.90;;;;;;5091693;28;20190;-57
2022/10/29 06:27:35;;;;;;;7.47;6.70;;;13.70;99.90;;;;;;5091212;28;20543;-56
2022/10/29 06:30:00;;;;;;;8.07;6.40;;;13.80;99.90;;;;;;5091880;28;20174;-57
2022/10/29 06:32:26;;;;;;;6.70;6.00;;;13.90;99.90;;;;;;5091718;28;20215;-60
2022/10/29 06:34:52;;;;;;;8.53;6.57;;;13.80;99.90;;;;;;5091502;28;20173;-58
2022/10/29 06:37:17;;;;;;;8.60;7.13;;;13.90;99.90;;;;;;5091004;28;20280;-59
2022/10/29 06:39:43;;;;;;;8.37;6.90;;;13.70;99.90;;;;;;5091383;28;20243;-61
2022/10/29 06:42:08;;;;;;;9.23;7.33;;;14.40;99.90;;;;;;5091854;28;20646;-59
2022/10/29 06:44:34;;;;;;;7.80;7.00;;;14.10;99.90;;;;;;5092510;28;20690;-58
2022/10/29 06:46:59;;;;;;;9.30;6.33;;;14.20;99.90;;;;;;5091771;28;20662;-61
2022/10/29 06:49:26;;;;;;;6.40;5.47;;;14.20;99.90;;;;;;5089043;28;20659;-55
2022/10/29 06:51:51;;;;;;;7.13;5.23;;;14.20;99.90;;;;;;5083713;28;20205;-61
2022/10/29 06:54:17;;;;;;;7.13;4.80;;;14.20;99.90;;;;;;5070598;28;20636;-59
2022/10/29 06:56:43;;;;;;;6.27;4.97;;;14.30;99.90;;;;;;5085269;28;20190;-57
2022/10/29 06:59:08;;;;;;;7.67;4.50;;;14.40;99.90;;;;;;5085907;28;20179;-61
2022/10/29 07:01:34;;;;;;;6.27;3.90;;;14.50;99.90;;;;;;5076208;28;20182;-60
2022/10/29 07:03:59;;;;;;;6.77;4.03;;;14.50;99.90;;;;;;5070906;28;20250;-59
2022/10/29 07:06:26;;;;;;;6.10;4.37;;;14.60;99.90;;;;;;5072946;28;20213;-60
2022/10/29 07:08:51;;;;;;;6.93;6.10;;;14.00;99.90;;;;;;5071092;28;20637;-58
2022/10/29 07:11:17;;;;;;;10.20;5.70;;;15.00;99.90;;;;;;5074155;28;20266;-59
2022/10/29 07:13:43;;;;;;;11.77;9.30;;;15.20;99.90;;;;;;5077927;28;20187;-62
2022/10/29 07:16:09;;;;;;;9.47;6.23;;;15.50;99.90;;;;;;5073514;28;20285;-59
2022/10/29 07:18:35;;;;;;;7.47;6.07;;;15.80;99.90;;;;;;5072874;28;20224;-62
2022/10/29 07:21:02;;;;;;;5.63;4.90;;;16.30;99.90;;;;;;5083248;28;20178;-62
2022/10/29 07:23:28;;;;;;;5.73;4.13;;;16.80;99.90;;;;;;5086947;28;20209;-60
2022/10/29 07:25:54;;;;;;;6.67;4.30;;;17.40;99.90;;;;;;5084559;28;20698;-61
2022/10/29 07:28:21;;;;;;;10.50;8.47;;;17.90;99.90;;;;;;5087637;28;20202;-61
2022/10/29 07:30:48;;;;;;;10.33;8.70;;;18.10;99.90;;;;;;5090924;28;20643;-56
2022/10/29 07:33:14;;;;;;;8.37;6.00;;;18.00;99.90;;;;;;5094038;28;20182;-64
2022/10/29 07:35:40;;;;;;;5.57;4.03;;;17.90;99.90;;;;;;5094894;28;20192;-58
2022/10/29 07:38:07;;;;;;;7.23;5.20;;;17.80;99.90;;;;;;5091716;28;20552;-61
2022/10/29 07:40:33;;;;;;;7.50;6.67;;;17.70;99.90;;;;;;5092364;28;20231;-60
2022/10/29 07:42:58;;;;;;;5.97;5.30;;;17.70;99.90;;;;;;5091258;28;20655;-62
2022/10/29 07:45:24;;;;;;;9.97;7.30;;;17.60;99.90;;;;;;5074217;28;20675;-60
2022/10/29 07:48:00;;;;;;;6.87;5.90;;;17.70;99.90;;;;;;5075610;28;20252;-60
2022/10/29 07:50:28;;;;;;;8.37;5.90;;;18.20;99.90;;;;;;5076142;28;20255;-59
2022/10/29 07:52:53;;;;;;;5.90;4.70;;;18.90;99.90;;;;;;5082466;28;20184;-58
2022/10/29 07:55:19;;;;;;;8.50;4.97;;;19.50;99.90;;;;;;5091406;28;20178;-62
2022/10/29 07:57:45;;;;;;;9.50;7.40;;;19.90;99.90;;;;;;5088109;28;20197;-59
2022/10/29 08:00:11;;;;;;;10.80;9.23;;;20.00;99.90;;;;;;5088425;28;20174;-60
2022/10/29 08:02:38;;;;;;;7.10;5.80;;;20.40;99.90;;;;;;5089828;28;20170;-56
2022/10/29 08:05:04;;;;;;;9.63;6.97;;;21.20;99.90;;;;;;5082008;28;20513;-59
2022/10/29 08:07:29;;;;;;;43.95;32.95;;;22.80;99.90;;;;;;5083648;28;20869;-60
2022/10/29 08:09:55;;;;;;;26.08;20.48;;;24.90;99.90;;;;;;5094515;28;20204;-63
2022/10/29 08:12:21;;;;;;;13.98;10.52;;;27.10;99.80;;;;;;5092569;28;20180;-58
2022/10/29 08:14:46;;;;;;;6.03;4.03;;;28.60;95.90;;;;;;5074535;28;20194;-62
2022/10/29 08:17:12;;;;;;;8.57;6.40;;;29.30;94.00;;;;;;5083497;28;20209;-60
2022/10/29 08:19:37;;;;;;;6.70;3.88;;;29.60;92.40;;;;;;5090877;28;20184;-62
2022/10/29 08:22:03;;;;;;;7.15;3.88;;;29.60;91.90;;;;;;5086342;28;20204;-62
2022/10/29 08:24:28;;;;;;;4.50;3.50;;;29.40;91.00;;;;;;5082683;28;20182;-61
2022/10/29 08:26:54;;;;;;;4.07;3.38;;;29.30;91.10;;;;;;5092049;28;20217;-59
2022/10/29 08:29:19;;;;;;;5.22;3.42;;;29.40;91.10;;;;;;5092686;28;20193;-60
2022/10/29 08:31:45;;;;;;;5.25;3.38;;;29.40;90.10;;;;;;5090338;28;20186;-63
2022/10/29 08:34:11;;;;;;;6.38;3.50;;;28.80;90.70;;;;;;5092646;28;20184;-63
2022/10/29 08:36:36;;;;;;;5.53;3.58;;;28.20;91.30;;;;;;5087581;28;20181;-60
2022/10/29 08:39:02;;;;;;;3.67;3.38;;;27.50;92.70;;;;;;5092835;28;20724;-61
2022/10/29 08:41:50;;;;;;;3.67;3.38;;;27.20;93.30;;;;;;5086249;28;20677;-59
2022/10/29 08:44:36;;;;;;;4.20;3.30;;;27.30;94.20;;;;;;5091403;28;20185;-61
2022/10/29 08:47:13;;;;;;;4.70;3.90;;;29.30;99.90;;;;;;5086897;28;20197;-60
2022/10/29 08:49:46;;;;;;;4.20;3.50;;;29.10;98.80;;;;;;5069306;28;20197;-59
2022/10/29 08:52:26;;;;;;;5.88;3.20;;;28.50;92.10;;;;;;5091990;28;20215;-64
2022/10/29 08:55:14;;;;;;;4.80;3.20;;;27.80;99.90;;;;;;5092243;28;20543;-61
2022/10/29 08:57:48;;;;;;;5.65;3.20;;;27.10;93.30;;;;;;5028756;28;20203;-62
2022/10/29 09:00:32;;;;;;;4.80;3.17;;;26.90;93.50;;;;;;5029858;28;20342;-61
2022/10/29 09:02:59;;;;;;;3.83;3.25;;;26.70;93.90;;;;;;5030709;28;20287;-58
2022/10/29 09:05:43;;;;;;;5.35;3.72;;;26.20;99.90;;;;;;5023737;28;20703;-57
2022/10/29 09:08:23;;;;;;;5.20;3.97;;;26.20;98.50;;;;;;5027925;28;20204;-58
2022/10/29 09:10:53;;;;;;;5.45;4.40;;;26.60;95.10;;;;;;5025584;28;20171;-58
2022/10/29 09:13:32;;;;;;;4.45;3.92;;;27.00;93.50;;;;;;5026529;28;20696;-57
2022/10/29 09:16:20;;;;;;;5.80;5.20;;;27.00;93.70;;;;;;5029256;28;20329;-59
2022/10/29 09:19:10;;;;;;;8.98;7.95;;;27.80;92.70;;;;;;5022765;28;20277;-56
2022/10/29 09:21:51;;;;;;;8.88;7.88;;;28.50;96.30;;;;;;5027492;28;20196;-59
2022/10/29 09:24:33;;;;;;;6.72;5.35;;;28.20;90.50;;;;;;5023139;28;20355;-56
2022/10/29 09:27:18;;;;;;;5.22;3.72;;;27.50;99.90;;;;;;5028092;28;20212;-58
2022/10/29 09:29:44;;;;;;;4.45;3.40;;;26.70;97.20;;;;;;5024647;28;20604;-56
2022/10/29 09:32:28;;;;;;;5.97;2.95;;;26.60;92.90;;;;;;5030524;28;20179;-58
2022/10/29 09:35:18;;;;;;;3.17;2.78;;;25.60;94.50;;;;;;5064873;28;20204;-59
2022/10/29 09:37:47;;;;;;;4.40;3.40;;;24.50;96.00;;;;;;5081065;28;20202;-59
2022/10/29 09:40:31;;;;;;;5.50;3.38;;;24.30;96.80;;;;;;5093014;28;20181;-61
2022/10/29 09:42:59;;;;;;;3.25;2.95;;;23.90;99.90;;;;;;5092959;28;20257;-56
2022/10/29 09:46:04;;;;;;;4.20;3.25;;;23.70;98.70;;;;;;5074067;28;20221;-58
2022/10/29 09:48:44;;;;;;;4.35;3.33;;;22.90;99.90;;;;;;4990618;28;20211;-57
2022/10/29 09:51:33;;;;;;;8.30;3.83;;;23.30;99.90;;;;;;4990890;28;20655;-58
2022/10/29 09:53:59;;;;;;;7.57;4.05;;;;;;;;;;4986159;28;20184;-56
2022/10/29 09:56:25;;;;;;;6.30;4.72;;;;;;;;;;4974342;28;20181;-57
2022/10/29 09:59:02;;;;;;;4.03;3.72;;;22.90;99.90;;;;;;4990741;28;20212;-60
2022/10/29 10:01:28;;;;;;;6.13;4.00;;;23.00;99.90;;;;;;4989279;28;20262;-58
2022/10/29 10:03:58;;;;;;;6.70;4.38;;;23.10;99.90;;;;;;4990366;28;20188;-60
2022/10/29 10:06:24;;;;;;;4.20;3.80;;;;;;;;;;4990454;28;20692;-57
2022/10/29 10:09:01;;;;;;;6.85;3.85;;;22.70;99.90;;;;;;4990421;28;20409;-60
2022/10/29 10:11:51;;;;;;;9.00;4.88;;;22.00;99.90;;;;;;4990342;28;20182;-58
2022/10/29 10:14:20;;;;;;;7.15;4.35;;;21.70;99.90;;;;;;4990198;28;20189;-59
2022/10/29 10:16:58;;;;;;;7.03;4.30;;;22.00;99.90;;;;;;4989826;28;20182;-59
2022/10/29 10:19:30;;;;;;;7.85;5.00;;;21.60;99.90;;;;;;4990480;28;20205;-60
2022/10/29 10:22:04;;;;;;;5.00;4.40;;;21.40;99.90;;;;;;4989736;28;20185;-58
2022/10/29 10:24:35;;;;;;;5.00;4.37;;;21.40;99.90;;;;;;5022664;28;20261;-57
2022/10/29 10:27:16;;;;;;;5.57;4.30;;;21.40;99.90;;;;;;5083890;28;20306;-60
2022/10/29 10:29:42;;;;;;;4.30;3.90;;;21.70;99.90;;;;;;5091897;28;20334;-59
2022/10/29 10:32:15;;;;;;;5.20;4.20;;;21.40;99.90;;;;;;5091614;28;20702;-59
2022/10/29 10:34:41;;;;;;;5.83;4.27;;;;;;;;;;5092414;28;20181;-61
2022/10/29 10:37:10;;;;;;;4.97;4.47;;;21.20;99.90;;;;;;5091579;28;20679;-60
2022/10/29 10:39:51;;;;;;;6.23;4.23;;;21.30;99.90;;;;;;5091951;28;20193;-59
2022/10/29 10:42:26;;;;;;;4.40;3.93;;;21.00;99.90;;;;;;5088685;28;20186;-54
2022/10/29 10:44:57;;;;;;;5.37;3.90;;;21.20;99.90;;;;;;5090881;28;20288;-57
2022/10/29 10:47:35;;;;;;;5.43;4.90;;;20.80;99.90;;;;;;5091136;28;20276;-59
2022/10/29 10:50:19;;;;;;;5.47;4.10;;;21.00;99.90;;;;;;5091236;28;20518;-58
2022/10/29 10:52:46;;;;;;;6.67;4.37;;;20.60;99.90;;;;;;5091432;28;20303;-59
2022/10/29 10:55:27;;;;;;;6.53;4.57;;;20.10;99.90;;;;;;5091125;28;20253;-58
2022/10/29 10:58:14;;;;;;;6.33;4.57;;;20.50;99.90;;;;;;5091481;28;20189;-59
2022/10/29 11:00:51;;;;;;;6.23;4.50;;;20.40;99.90;;;;;;5091092;28;20174;-58
2022/10/29 11:03:20;;;;;;;9.17;4.57;;;21.40;99.90;;;;;;5091125;28;20178;-58
2022/10/29 11:05:56;;;;;;;6.93;4.90;;;21.70;99.90;;;;;;5091163;28;20228;-59
2022/10/29 11:08:50;;;;;;;5.45;4.50;;;21.80;99.90;;;;;;5091397;28;20182;-61
2022/10/29 11:11:24;;;;;;;6.43;4.60;;;22.10;99.90;;;;;;4989219;28;20193;-58
2022/10/29 11:13:50;;;;;;;5.90;4.40;;;21.90;99.90;;;;;;4991807;28;20627;-60
2022/10/29 11:16:52;;;;;;;6.93;4.40;;;21.30;99.90;;;;;;4993382;28;20582;-58
2022/10/29 11:19:31;;;;;;;9.33;4.70;;;21.70;99.90;;;;;;4993211;28;20192;-61
2022/10/29 11:22:21;;;;;;;7.27;4.33;;;21.60;99.90;;;;;;4993673;28;20287;-59
2022/10/29 11:24:56;;;;;;;6.53;3.93;;;21.40;99.90;;;;;;4993387;28;20177;-59
2022/10/29 11:27:51;;;;;;;5.25;4.47;;;21.50;99.90;;;;;;4993290;28;20618;-59
2022/10/29 11:30:18;;;;;;;6.13;4.90;;;22.40;99.90;;;;;;4987993;28;20252;-60
2022/10/29 11:33:08;;;;;;;5.15;4.10;;;21.20;99.90;;;;;;4988465;28;20189;-60
2022/10/29 11:35:45;;;;;;;7.82;4.28;;;21.40;99.90;;;;;;4991964;28;20204;-56
2022/10/29 11:38:32;;;;;;;4.88;4.03;;;21.80;99.90;;;;;;4985571;28;20214;-59
2022/10/29 11:41:23;;;;;;;5.53;4.10;;;22.20;99.90;;;;;;4990452;28;20203;-61
2022/10/29 11:43:49;;;;;;;5.45;3.65;;;22.40;99.90;;;;;;4980237;28;20279;-58
2022/10/29 11:46:25;;;;;;;5.70;4.07;;;23.10;99.90;;;;;;4975838;28;20296;-55
2022/10/29 11:48:54;;;;;;;5.70;3.65;;;23.80;99.90;;;;;;5083450;28;20205;-59
2022/10/29 11:51:40;;;;;;;5.20;4.20;;;24.20;99.90;;;;;;5089933;28;20178;-59
2022/10/29 11:54:36;;;;;;;5.85;3.50;;;24.10;99.90;;;;;;5088771;28;20250;-59
2022/10/29 11:57:12;;;;;;;3.72;2.95;;;23.70;99.90;;;;;;5093145;28;20185;-59
2022/10/29 11:59:41;;;;;;;6.35;4.00;;;23.80;99.90;;;;;;5087236;28;20224;-56
2022/10/29 12:02:51;;;;;;;4.45;3.10;;;23.70;99.90;;;;;;5074517;28;20277;-58
2022/10/29 12:05:38;;;;;;;7.15;3.75;;;23.50;99.90;;;;;;4972882;28;20222;-58
2022/10/29 12:08:20;;;;;;;6.85;3.33;;;24.00;99.90;;;;;;4973516;28;20695;-57
2022/10/29 12:11:17;;;;;;;5.55;3.08;;;24.80;99.90;;;;;;4973183;28;20194;-59
2022/10/29 12:14:16;;;;;;;5.75;3.05;;;26.20;99.90;;;;;;4973214;28;20179;-57
2022/10/29 12:16:44;;;;;;;7.50;3.38;;;27.80;99.90;;;;;;4972995;28;20260;-58
2022/10/29 12:19:31;;;;;;;3.95;2.92;;;28.80;98.70;;;;;;4973318;28;20237;-60
2022/10/29 12:22:18;;;;;;;4.50;2.85;;;29.00;99.90;;;;;;4972598;28;20281;-55
2022/10/29 12:25:07;;;;;;;5.97;3.30;;;28.90;99.90;;;;;;4971632;28;20277;-57
2022/10/29 12:27:50;;;;;;;5.75;3.03;;;28.50;99.90;;;;;;4972684;28;20200;-57
2022/10/29 12:30:17;;;;;;;5.50;3.03;;;28.30;99.90;;;;;;4972857;28;20663;-56
2022/10/29 12:33:06;;;;;;;5.00;3.17;;;28.50;99.90;;;;;;4972709;28;20513;-57
2022/10/29 12:35:37;;;;;;;5.63;3.30;;;28.90;99.90;;;;;;4972940;28;20182;-59
2022/10/29 12:38:15;;;;;;;3.92;2.92;;;30.50;94.00;;;;;;4972610;28;20731;-60
2022/10/29 12:40:43;;;;;;;5.38;3.28;;;31.30;92.50;;;;;;4972413;28;20189;-60
2022/10/29 12:43:23;;;;;;;5.28;3.13;;;32.10;96.40;;;;;;5066014;28;20186;-61
2022/10/29 12:45:58;;;;;;;6.55;2.95;;;31.50;87.00;;;;;;5073818;28;20202;-57
2022/10/29 12:48:55;;;;;;;8.32;2.72;;;32.80;88.50;;;;;;5073561;28;20193;-60
2022/10/29 12:51:26;;;;;;;6.38;2.97;;;33.00;84.40;;;;;;5073668;28;20182;-61
2022/10/29 12:54:15;;;;;;;7.82;3.03;;;33.40;85.30;;;;;;5073130;28;20170;-61
2022/10/29 12:56:41;;;;;;;4.13;2.78;;;33.30;88.40;;;;;;5073534;28;20320;-61
2022/10/29 12:59:33;;;;;;;3.35;2.50;;;33.60;87.40;;;;;;5073347;28;20178;-59
2022/10/29 13:02:20;;;;;;;4.45;2.67;;;34.10;85.50;;;;;;5073595;28;20166;-58
2022/10/29 13:05:04;;;;;;;3.40;2.40;;;34.60;80.20;;;;;;5072871;28;20166;-58